sensor_id;sensor_type;location;lat;lon;timestamp;temperature;humidity
24252;DHT22;12380;51.118;4.176;2023-03-13T00:01:08;10.50;99.90
24252;DHT22;12380;51.118;4.176;2023-03-13T00:03:34;10.50;99.90
24252;DHT22;12380;51.118;4.176;2023-03-13T00:06:02;10.60;99.90
24252;DHT22;12380;51.118;4.176;2023-03-13T00:08:30;10.60;99.90
24252;DHT22;12380;51.118;4.176;2023-03-13T00:10:56;10.60;99.90
24252;DHT22;12380;51.118;4.176;2023-03-13T00:13:22;10.70;99.90
24252;DHT22;12380;51.118;4.176;2023-03-13T00:15:48;10.70;99.90
24252;DHT22;12380;51.118;4.176;2023-03-13T00:18:14;10.70;99.90
24252;DHT22;12380;51.118;4.176;2023-03-13T00:20:39;10.70;99.90
24252;DHT22;12380;51.118;4.176;2023-03-13T00:23:07;10.70;99.90
24252;DHT22;12380;51.118;4.176;2023-03-13T00:25:36;10.80;99.90
24252;DHT22;12380;51.118;4.176;2023-03-13T00:28:04;10.80;99.90
24252;DHT22;12380;51.118;4.176;2023-03-13T00:30:29;10.80;99.90
24252;DHT22;12380;51.118;4.176;2023-03-13T00:32:57;10.80;99.90
24252;DHT22;12380;51.118;4.176;2023-03-13T00:35:23;10.90;99.90
24252;DHT22;12380;51.118;4.176;2023-03-13T00:37:49;10.90;99.90
24252;DHT22;12380;51.118;4.176;2023-03-13T00:40:15;10.90;99.90
24252;DHT22;12380;51.118;4.176;2023-03-13T00:42:41;10.90;99.90
24252;DHT22;12380;51.118;4.176;2023-03-13T00:45:07;10.90;99.90
24252;DHT22;12380;51.118;4.176;2023-03-13T00:47:33;11.00;99.90
24252;DHT22;12380;51.118;4.176;2023-03-13T00:49:58;11.00;99.90
24252;DHT22;12380;51.118;4.176;2023-03-13T00:52:26;11.00;99.90
24252;DHT22;12380;51.118;4.176;2023-03-13T00:54:52;11.10;99.90
24252;DHT22;12380;51.118;4.176;2023-03-13T00:57:18;11.10;99.90
24252;DHT22;12380;51.118;4.176;2023-03-13T00:59:44;11.10;99.90
24252;DHT22;12380;51.118;4.176;2023-03-13T01:02:09;11.10;99.90
24252;DHT22;12380;51.118;4.176;2023-03-13T01:04:35;11.20;99.90
24252;DHT22;12380;51.118;4.176;2023-03-13T01:07:01;11.20;99.90
24252;DHT22;12380;51.118;4.176;2023-03-13T01:09:26;11.20;99.90
24252;DHT22;12380;51.118;4.176;2023-03-13T01:11:53;11.20;99.90
24252;DHT22;12380;51.118;4.176;2023-03-13T01:14:21;11.20;99.90
24252;DHT22;12380;51.118;4.176;2023-03-13T01:16:49;11.30;99.90
24252;DHT22;12380;51.118;4.176;2023-03-13T01:19:18;11.30;99.90
24252;DHT22;12380;51.118;4.176;2023-03-13T01:21:44;11.40;99.90
24252;DHT22;12380;51.118;4.176;2023-03-13T01:24:10;11.40;99.90
24252;DHT22;12380;51.118;4.176;2023-03-13T01:26:36;11.40;99.90
24252;DHT22;12380;51.118;4.176;2023-03-13T01:29:02;11.50;99.90
24252;DHT22;12380;51.118;4.176;2023-03-13T01:31:31;11.60;99.90
24252;DHT22;12380;51.118;4.176;2023-03-13T01:33:59;11.60;99.90
24252;DHT22;12380;51.118;4.176;2023-03-13T01:36:25;11.60;99.90
24252;DHT22;12380;51.118;4.176;2023-03-13T01:38:53;11.60;99.90
24252;DHT22;12380;51.118;4.176;2023-03-13T01:41:20;11.60;99.90
24252;DHT22;12380;51.118;4.176;2023-03-13T01:43:46;11.60;99.90
24252;DHT22;12380;51.118;4.176;2023-03-13T01:46:16;11.70;99.90
24252;DHT22;12380;51.118;4.176;2023-03-13T01:52:02;11.70;99.90
24252;DHT22;12380;51.118;4.176;2023-03-13T01:57:09;11.80;99.90
24252;DHT22;12380;51.118;4.176;2023-03-13T01:59:46;11.80;99.90
24252;DHT22;12380;51.118;4.176;2023-03-13T02:02:13;11.70;99.90
24252;DHT22;12380;51.118;4.176;2023-03-13T02:04:44;11.80;99.90
24252;DHT22;12380;51.118;4.176;2023-03-13T02:07:19;11.80;99.90
24252;DHT22;12380;51.118;4.176;2023-03-13T02:09:48;11.90;99.90
24252;DHT22;12380;51.118;4.176;2023-03-13T02:12:36;12.00;99.90
24252;DHT22;12380;51.118;4.176;2023-03-13T02:17:34;12.00;99.90
24252;DHT22;12380;51.118;4.176;2023-03-13T02:20:03;12.00;99.90
24252;DHT22;12380;51.118;4.176;2023-03-13T02:27:54;12.20;99.90
24252;DHT22;12380;51.118;4.176;2023-03-13T02:30:22;12.20;99.90
24252;DHT22;12380;51.118;4.176;2023-03-13T02:32:49;12.20;99.90
24252;DHT22;12380;51.118;4.176;2023-03-13T02:35:19;12.30;99.90
24252;DHT22;12380;51.118;4.176;2023-03-13T02:37:58;12.30;99.90
24252;DHT22;12380;51.118;4.176;2023-03-13T02:40:31;12.30;99.90
24252;DHT22;12380;51.118;4.176;2023-03-13T02:43:00;12.30;99.90
24252;DHT22;12380;51.118;4.176;2023-03-13T02:45:26;12.40;99.90
24252;DHT22;12380;51.118;4.176;2023-03-13T02:47:57;12.30;99.90
24252;DHT22;12380;51.118;4.176;2023-03-13T02:50:28;12.40;99.90
24252;DHT22;12380;51.118;4.176;2023-03-13T02:53:00;12.40;99.90
24252;DHT22;12380;51.118;4.176;2023-03-13T02:55:30;12.50;99.90
24252;DHT22;12380;51.118;4.176;2023-03-13T02:57:57;12.50;99.90
24252;DHT22;12380;51.118;4.176;2023-03-13T03:00:24;12.60;99.90
24252;DHT22;12380;51.118;4.176;2023-03-13T03:02:52;12.60;99.90
24252;DHT22;12380;51.118;4.176;2023-03-13T03:05:18;12.60;99.90
24252;DHT22;12380;51.118;4.176;2023-03-13T03:07:44;12.60;99.90
24252;DHT22;12380;51.118;4.176;2023-03-13T03:10:10;12.70;99.90
24252;DHT22;12380;51.118;4.176;2023-03-13T03:12:36;12.70;99.90
24252;DHT22;12380;51.118;4.176;2023-03-13T03:15:02;12.70;99.90
24252;DHT22;12380;51.118;4.176;2023-03-13T03:17:31;12.70;99.90
24252;DHT22;12380;51.118;4.176;2023-03-13T03:19:57;12.80;99.90
24252;DHT22;12380;51.118;4.176;2023-03-13T03:22:23;12.70;99.90
24252;DHT22;12380;51.118;4.176;2023-03-13T03:24:51;12.80;99.90
24252;DHT22;12380;51.118;4.176;2023-03-13T03:27:19;12.90;99.90
24252;DHT22;12380;51.118;4.176;2023-03-13T03:29:45;12.90;99.90
24252;DHT22;12380;51.118;4.176;2023-03-13T03:32:13;12.80;99.90
24252;DHT22;12380;51.118;4.176;2023-03-13T03:34:39;12.90;99.90
24252;DHT22;12380;51.118;4.176;2023-03-13T03:37:04;13.00;99.90
24252;DHT22;12380;51.118;4.176;2023-03-13T03:39:30;12.90;99.90
24252;DHT22;12380;51.118;4.176;2023-03-13T03:41:56;13.00;99.90
24252;DHT22;12380;51.118;4.176;2023-03-13T03:44:26;13.00;99.90
24252;DHT22;12380;51.118;4.176;2023-03-13T03:46:52;13.10;99.90
24252;DHT22;12380;51.118;4.176;2023-03-13T03:49:18;13.10;99.90
24252;DHT22;12380;51.118;4.176;2023-03-13T03:51:43;13.00;99.90
24252;DHT22;12380;51.118;4.176;2023-03-13T03:54:09;12.90;99.90
24252;DHT22;12380;51.118;4.176;2023-03-13T03:56:35;13.00;99.90
24252;DHT22;12380;51.118;4.176;2023-03-13T03:59:00;13.00;99.90
24252;DHT22;12380;51.118;4.176;2023-03-13T04:01:28;13.00;99.90
24252;DHT22;12380;51.118;4.176;2023-03-13T04:03:54;13.00;99.90
24252;DHT22;12380;51.118;4.176;2023-03-13T04:06:20;13.00;99.90
24252;DHT22;12380;51.118;4.176;2023-03-13T04:08:45;13.00;99.90
24252;DHT22;12380;51.118;4.176;2023-03-13T04:11:14;13.00;99.90
24252;DHT22;12380;51.118;4.176;2023-03-13T04:13:41;13.00;99.90
24252;DHT22;12380;51.118;4.176;2023-03-13T04:16:08;13.10;99.90
24252;DHT22;12380;51.118;4.176;2023-03-13T04:18:34;13.10;99.90
24252;DHT22;12380;51.118;4.176;2023-03-13T04:21:01;13.00;99.90
24252;DHT22;12380;51.118;4.176;2023-03-13T04:23:27;13.00;99.90
24252;DHT22;12380;51.118;4.176;2023-03-13T04:25:53;13.00;99.90
24252;DHT22;12380;51.118;4.176;2023-03-13T04:28:19;13.00;99.90
24252;DHT22;12380;51.118;4.176;2023-03-13T04:30:44;13.10;99.90
24252;DHT22;12380;51.118;4.176;2023-03-13T04:33:13;13.00;99.90
24252;DHT22;12380;51.118;4.176;2023-03-13T04:35:38;13.10;99.90
24252;DHT22;12380;51.118;4.176;2023-03-13T04:38:04;13.10;99.90
24252;DHT22;12380;51.118;4.176;2023-03-13T04:40:30;13.10;99.90
24252;DHT22;12380;51.118;4.176;2023-03-13T04:42:56;13.10;99.90
24252;DHT22;12380;51.118;4.176;2023-03-13T04:45:21;13.10;99.90
24252;DHT22;12380;51.118;4.176;2023-03-13T04:47:47;13.10;99.90
24252;DHT22;12380;51.118;4.176;2023-03-13T04:50:13;13.10;99.90
24252;DHT22;12380;51.118;4.176;2023-03-13T04:52:38;13.00;99.90
24252;DHT22;12380;51.118;4.176;2023-03-13T04:55:05;13.00;99.90
24252;DHT22;12380;51.118;4.176;2023-03-13T04:57:30;13.10;99.90
24252;DHT22;12380;51.118;4.176;2023-03-13T04:59:56;13.10;99.90
24252;DHT22;12380;51.118;4.176;2023-03-13T05:02:25;13.10;99.90
24252;DHT22;12380;51.118;4.176;2023-03-13T05:04:50;13.10;99.90
24252;DHT22;12380;51.118;4.176;2023-03-13T05:07:16;13.10;99.90
24252;DHT22;12380;51.118;4.176;2023-03-13T05:09:42;13.20;99.90
24252;DHT22;12380;51.118;4.176;2023-03-13T05:12:10;13.20;99.90
24252;DHT22;12380;51.118;4.176;2023-03-13T05:14:38;13.20;99.90
24252;DHT22;12380;51.118;4.176;2023-03-13T05:17:04;13.10;99.90
24252;DHT22;12380;51.118;4.176;2023-03-13T05:19:29;13.20;99.90
24252;DHT22;12380;51.118;4.176;2023-03-13T05:21:57;13.20;99.90
24252;DHT22;12380;51.118;4.176;2023-03-13T05:24:25;13.20;99.90
24252;DHT22;12380;51.118;4.176;2023-03-13T05:26:51;13.10;99.90
24252;DHT22;12380;51.118;4.176;2023-03-13T05:29:17;13.10;99.90
24252;DHT22;12380;51.118;4.176;2023-03-13T05:31:45;13.10;99.90
24252;DHT22;12380;51.118;4.176;2023-03-13T05:34:10;13.00;99.90
24252;DHT22;12380;51.118;4.176;2023-03-13T05:36:36;13.00;99.90
24252;DHT22;12380;51.118;4.176;2023-03-13T05:39:02;13.00;99.90
24252;DHT22;12380;51.118;4.176;2023-03-13T05:41:28;13.10;99.90
24252;DHT22;12380;51.118;4.176;2023-03-13T05:43:53;13.10;99.90
24252;DHT22;12380;51.118;4.176;2023-03-13T05:46:19;13.10;99.90
24252;DHT22;12380;51.118;4.176;2023-03-13T05:48:45;13.00;99.90
24252;DHT22;12380;51.118;4.176;2023-03-13T05:51:13;13.10;99.90
24252;DHT22;12380;51.118;4.176;2023-03-13T05:53:39;13.00;99.90
24252;DHT22;12380;51.118;4.176;2023-03-13T05:56:05;13.00;99.90
24252;DHT22;12380;51.118;4.176;2023-03-13T05:58:31;13.00;99.90
24252;DHT22;12380;51.118;4.176;2023-03-13T06:01:05;13.00;99.90
24252;DHT22;12380;51.118;4.176;2023-03-13T06:03:34;13.10;99.90
24252;DHT22;12380;51.118;4.176;2023-03-13T06:05:59;13.10;99.90
24252;DHT22;12380;51.118;4.176;2023-03-13T06:08:25;13.10;99.90
24252;DHT22;12380;51.118;4.176;2023-03-13T06:10:52;13.10;99.90
24252;DHT22;12380;51.118;4.176;2023-03-13T06:13:18;13.10;99.90
24252;DHT22;12380;51.118;4.176;2023-03-13T06:15:51;13.00;99.90
24252;DHT22;12380;51.118;4.176;2023-03-13T06:18:17;13.00;99.90
24252;DHT22;12380;51.118;4.176;2023-03-13T06:20:54;13.00;99.90
24252;DHT22;12380;51.118;4.176;2023-03-13T06:23:22;13.00;99.90
24252;DHT22;12380;51.118;4.176;2023-03-13T06:25:48;13.00;99.90
24252;DHT22;12380;51.118;4.176;2023-03-13T06:28:16;13.00;99.90
24252;DHT22;12380;51.118;4.176;2023-03-13T06:30:42;13.10;99.90
24252;DHT22;12380;51.118;4.176;2023-03-13T06:33:08;13.10;99.90
24252;DHT22;12380;51.118;4.176;2023-03-13T06:35:37;13.10;99.90
24252;DHT22;12380;51.118;4.176;2023-03-13T06:38:06;13.10;99.90
24252;DHT22;12380;51.118;4.176;2023-03-13T06:40:32;13.10;99.90
24252;DHT22;12380;51.118;4.176;2023-03-13T06:42:58;13.10;99.90
24252;DHT22;12380;51.118;4.176;2023-03-13T06:45:24;13.10;99.90
24252;DHT22;12380;51.118;4.176;2023-03-13T06:47:49;13.00;99.90
24252;DHT22;12380;51.118;4.176;2023-03-13T06:50:17;13.10;99.90
24252;DHT22;12380;51.118;4.176;2023-03-13T06:52:42;13.10;99.90
24252;DHT22;12380;51.118;4.176;2023-03-13T06:55:09;13.10;99.90
24252;DHT22;12380;51.118;4.176;2023-03-13T06:57:35;13.10;99.90
24252;DHT22;12380;51.118;4.176;2023-03-13T07:00:01;13.10;99.90
24252;DHT22;12380;51.118;4.176;2023-03-13T07:02:26;13.10;99.90
24252;DHT22;12380;51.118;4.176;2023-03-13T07:04:52;13.00;99.90
24252;DHT22;12380;51.118;4.176;2023-03-13T07:07:20;13.10;99.90
24252;DHT22;12380;51.118;4.176;2023-03-13T07:09:46;13.20;99.90
24252;DHT22;12380;51.118;4.176;2023-03-13T07:12:12;13.20;99.90
24252;DHT22;12380;51.118;4.176;2023-03-13T07:14:37;13.20;99.90
24252;DHT22;12380;51.118;4.176;2023-03-13T07:17:06;13.20;99.90
24252;DHT22;12380;51.118;4.176;2023-03-13T07:19:34;13.20;99.90
24252;DHT22;12380;51.118;4.176;2023-03-13T07:22:03;13.20;99.90
24252;DHT22;12380;51.118;4.176;2023-03-13T07:24:28;13.30;99.90
24252;DHT22;12380;51.118;4.176;2023-03-13T07:26:56;13.40;99.90
24252;DHT22;12380;51.118;4.176;2023-03-13T07:29:25;13.40;99.90
24252;DHT22;12380;51.118;4.176;2023-03-13T07:31:50;13.40;99.90
24252;DHT22;12380;51.118;4.176;2023-03-13T07:34:21;13.50;99.90
24252;DHT22;12380;51.118;4.176;2023-03-13T07:36:47;13.40;99.90
24252;DHT22;12380;51.118;4.176;2023-03-13T07:39:12;13.40;99.90
24252;DHT22;12380;51.118;4.176;2023-03-13T07:41:38;13.40;99.90
24252;DHT22;12380;51.118;4.176;2023-03-13T07:44:04;13.50;99.90
24252;DHT22;12380;51.118;4.176;2023-03-13T07:46:30;13.60;99.90
24252;DHT22;12380;51.118;4.176;2023-03-13T07:48:58;13.70;99.90
24252;DHT22;12380;51.118;4.176;2023-03-13T07:51:26;13.70;99.90
24252;DHT22;12380;51.118;4.176;2023-03-13T07:53:52;13.70;99.90
24252;DHT22;12380;51.118;4.176;2023-03-13T07:56:22;13.60;99.90
24252;DHT22;12380;51.118;4.176;2023-03-13T07:58:50;13.50;99.90
24252;DHT22;12380;51.118;4.176;2023-03-13T08:01:19;13.40;99.90
24252;DHT22;12380;51.118;4.176;2023-03-13T08:03:45;13.40;99.90
24252;DHT22;12380;51.118;4.176;2023-03-13T08:06:14;13.40;99.90
24252;DHT22;12380;51.118;4.176;2023-03-13T08:08:46;13.50;99.90
24252;DHT22;12380;51.118;4.176;2023-03-13T08:11:16;13.50;99.90
24252;DHT22;12380;51.118;4.176;2023-03-13T08:13:43;13.50;99.90
24252;DHT22;12380;51.118;4.176;2023-03-13T08:16:14;13.50;99.90
24252;DHT22;12380;51.118;4.176;2023-03-13T08:18:42;13.50;99.90
24252;DHT22;12380;51.118;4.176;2023-03-13T08:21:21;13.50;99.90
24252;DHT22;12380;51.118;4.176;2023-03-13T08:23:47;13.60;99.90
24252;DHT22;12380;51.118;4.176;2023-03-13T08:26:18;13.60;99.90
24252;DHT22;12380;51.118;4.176;2023-03-13T08:28:50;13.60;99.90
24252;DHT22;12380;51.118;4.176;2023-03-13T08:31:22;13.60;99.90
24252;DHT22;12380;51.118;4.176;2023-03-13T08:33:50;13.80;99.90
24252;DHT22;12380;51.118;4.176;2023-03-13T08:36:23;14.10;99.90
24252;DHT22;12380;51.118;4.176;2023-03-13T08:38:51;14.20;99.90
24252;DHT22;12380;51.118;4.176;2023-03-13T08:41:19;14.70;99.90
24252;DHT22;12380;51.118;4.176;2023-03-13T08:43:50;15.50;99.90
24252;DHT22;12380;51.118;4.176;2023-03-13T08:46:19;15.30;99.90
24252;DHT22;12380;51.118;4.176;2023-03-13T08:48:48;15.60;99.90
24252;DHT22;12380;51.118;4.176;2023-03-13T08:51:15;16.30;99.90
24252;DHT22;12380;51.118;4.176;2023-03-13T08:53:42;16.50;99.90
24252;DHT22;12380;51.118;4.176;2023-03-13T08:56:10;16.80;99.90
24252;DHT22;12380;51.118;4.176;2023-03-13T08:58:36;16.40;99.90
24252;DHT22;12380;51.118;4.176;2023-03-13T09:01:08;16.60;99.90
24252;DHT22;12380;51.118;4.176;2023-03-13T09:03:36;17.40;99.90
24252;DHT22;12380;51.118;4.176;2023-03-13T09:06:05;17.10;99.90
24252;DHT22;12380;51.118;4.176;2023-03-13T09:08:31;16.30;99.90
24252;DHT22;12380;51.118;4.176;2023-03-13T09:10:59;15.80;99.90
24252;DHT22;12380;51.118;4.176;2023-03-13T09:13:26;15.50;99.90
24252;DHT22;12380;51.118;4.176;2023-03-13T09:15:54;15.50;99.90
24252;DHT22;12380;51.118;4.176;2023-03-13T09:18:22;15.60;99.90
24252;DHT22;12380;51.118;4.176;2023-03-13T09:20:49;16.00;99.90
24252;DHT22;12380;51.118;4.176;2023-03-13T09:23:18;16.80;99.90
24252;DHT22;12380;51.118;4.176;2023-03-13T09:25:44;16.80;99.90
24252;DHT22;12380;51.118;4.176;2023-03-13T09:28:10;16.50;99.90
24252;DHT22;12380;51.118;4.176;2023-03-13T09:30:36;16.80;99.90
24252;DHT22;12380;51.118;4.176;2023-03-13T09:33:04;16.50;99.90
24252;DHT22;12380;51.118;4.176;2023-03-13T09:35:30;16.00;99.90
24252;DHT22;12380;51.118;4.176;2023-03-13T09:37:56;15.90;99.90
24252;DHT22;12380;51.118;4.176;2023-03-13T09:40:23;15.90;99.90
24252;DHT22;12380;51.118;4.176;2023-03-13T09:42:55;16.10;99.90
24252;DHT22;12380;51.118;4.176;2023-03-13T09:45:34;16.10;99.90
24252;DHT22;12380;51.118;4.176;2023-03-13T09:48:10;15.90;99.90
24252;DHT22;12380;51.118;4.176;2023-03-13T09:50:50;16.10;99.90
24252;DHT22;12380;51.118;4.176;2023-03-13T09:53:44;16.00;99.90
24252;DHT22;12380;51.118;4.176;2023-03-13T09:56:40;15.80;99.90
24252;DHT22;12380;51.118;4.176;2023-03-13T10:01:37;15.40;99.90
24252;DHT22;12380;51.118;4.176;2023-03-13T10:04:43;15.60;99.90
24252;DHT22;12380;51.118;4.176;2023-03-13T10:07:11;15.90;99.90
24252;DHT22;12380;51.118;4.176;2023-03-13T10:09:36;16.10;99.90
24252;DHT22;12380;51.118;4.176;2023-03-13T10:12:17;16.20;99.90
24252;DHT22;12380;51.118;4.176;2023-03-13T10:17:38;15.90;99.90
24252;DHT22;12380;51.118;4.176;2023-03-13T10:22:45;15.80;99.90
24252;DHT22;12380;51.118;4.176;2023-03-13T10:25:33;15.80;99.90
24252;DHT22;12380;51.118;4.176;2023-03-13T10:28:02;15.70;99.90
24252;DHT22;12380;51.118;4.176;2023-03-13T10:30:31;15.80;99.90
24252;DHT22;12380;51.118;4.176;2023-03-13T10:35:41;15.80;99.90
24252;DHT22;12380;51.118;4.176;2023-03-13T10:38:13;15.90;99.90
24252;DHT22;12380;51.118;4.176;2023-03-13T10:40:39;15.90;99.90
24252;DHT22;12380;51.118;4.176;2023-03-13T10:43:18;15.90;99.90
24252;DHT22;12380;51.118;4.176;2023-03-13T10:45:44;16.00;99.90
24252;DHT22;12380;51.118;4.176;2023-03-13T10:48:19;16.00;99.90
24252;DHT22;12380;51.118;4.176;2023-03-13T10:50:47;15.90;99.90
24252;DHT22;12380;51.118;4.176;2023-03-13T10:55:45;15.80;99.90
24252;DHT22;12380;51.118;4.176;2023-03-13T11:01:40;16.30;99.90
24252;DHT22;12380;51.118;4.176;2023-03-13T11:07:01;17.80;99.90
24252;DHT22;12380;51.118;4.176;2023-03-13T11:09:27;18.20;99.90
24252;DHT22;12380;51.118;4.176;2023-03-13T11:11:55;18.00;99.90
24252;DHT22;12380;51.118;4.176;2023-03-13T11:14:25;17.90;99.90
24252;DHT22;12380;51.118;4.176;2023-03-13T11:19:38;18.00;99.90
24252;DHT22;12380;51.118;4.176;2023-03-13T11:25:27;17.30;99.90
24252;DHT22;12380;51.118;4.176;2023-03-13T11:28:13;17.50;99.90
24252;DHT22;12380;51.118;4.176;2023-03-13T11:55:39;17.40;99.90
24252;DHT22;12380;51.118;4.176;2023-03-13T12:01:39;17.10;99.90
24252;DHT22;12380;51.118;4.176;2023-03-13T12:04:24;17.50;99.90
24252;DHT22;12380;51.118;4.176;2023-03-13T12:09:45;18.80;99.90
24252;DHT22;12380;51.118;4.176;2023-03-13T12:15:06;19.20;99.90
24252;DHT22;12380;51.118;4.176;2023-03-13T12:17:37;19.00;99.90
24252;DHT22;12380;51.118;4.176;2023-03-13T12:25:50;18.50;99.90
24252;DHT22;12380;51.118;4.176;2023-03-13T12:28:24;18.30;99.90
24252;DHT22;12380;51.118;4.176;2023-03-13T12:36:16;18.30;99.90
24252;DHT22;12380;51.118;4.176;2023-03-13T12:38:50;18.60;99.90
24252;DHT22;12380;51.118;4.176;2023-03-13T12:41:30;18.50;99.90
24252;DHT22;12380;51.118;4.176;2023-03-13T12:43:57;19.30;99.90
24252;DHT22;12380;51.118;4.176;2023-03-13T12:47:09;19.60;99.90
24252;DHT22;12380;51.118;4.176;2023-03-13T13:00:52;18.80;99.90
24252;DHT22;12380;51.118;4.176;2023-03-13T13:06:08;18.40;99.90
24252;DHT22;12380;51.118;4.176;2023-03-13T13:08:38;18.60;99.90
24252;DHT22;12380;51.118;4.176;2023-03-13T13:14:00;18.70;99.90
24252;DHT22;12380;51.118;4.176;2023-03-13T13:16:26;18.60;99.90
24252;DHT22;12380;51.118;4.176;2023-03-13T13:18:53;18.70;99.90
24252;DHT22;12380;51.118;4.176;2023-03-13T13:21:23;19.20;99.90
24252;DHT22;12380;51.118;4.176;2023-03-13T13:23:51;19.10;99.90
24252;DHT22;12380;51.118;4.176;2023-03-13T13:39:46;19.00;99.90
24252;DHT22;12380;51.118;4.176;2023-03-13T13:47:37;19.10;99.90
24252;DHT22;12380;51.118;4.176;2023-03-13T13:50:15;18.40;99.90
24252;DHT22;12380;51.118;4.176;2023-03-13T13:52:42;18.30;99.90
24252;DHT22;12380;51.118;4.176;2023-03-13T13:58:03;19.30;99.90
24252;DHT22;12380;51.118;4.176;2023-03-13T14:03:21;18.90;99.90
24252;DHT22;12380;51.118;4.176;2023-03-13T14:05:53;18.80;99.90
24252;DHT22;12380;51.118;4.176;2023-03-13T14:08:26;18.80;99.90
24252;DHT22;12380;51.118;4.176;2023-03-13T14:11:13;19.00;99.90
24252;DHT22;12380;51.118;4.176;2023-03-13T14:16:37;18.30;99.90
24252;DHT22;12380;51.118;4.176;2023-03-13T14:19:03;17.90;99.90
24252;DHT22;12380;51.118;4.176;2023-03-13T14:21:29;17.80;99.90
24252;DHT22;12380;51.118;4.176;2023-03-13T14:23:55;17.90;99.90
24252;DHT22;12380;51.118;4.176;2023-03-13T14:26:26;17.80;99.90
24252;DHT22;12380;51.118;4.176;2023-03-13T14:28:59;18.00;99.90
24252;DHT22;12380;51.118;4.176;2023-03-13T14:39:35;18.40;99.90
24252;DHT22;12380;51.118;4.176;2023-03-13T14:42:04;18.30;99.90
24252;DHT22;12380;51.118;4.176;2023-03-13T14:44:34;18.00;99.90
24252;DHT22;12380;51.118;4.176;2023-03-13T14:47:16;17.80;99.90
24252;DHT22;12380;51.118;4.176;2023-03-13T14:49:46;17.70;99.90
24252;DHT22;12380;51.118;4.176;2023-03-13T14:52:24;17.80;99.90
24252;DHT22;12380;51.118;4.176;2023-03-13T14:55:44;17.70;99.90
24252;DHT22;12380;51.118;4.176;2023-03-13T14:58:05;17.90;99.90
24252;DHT22;12380;51.118;4.176;2023-03-13T15:00:43;18.00;99.90
24252;DHT22;12380;51.118;4.176;2023-03-13T15:06:26;17.90;99.90
24252;DHT22;12380;51.118;4.176;2023-03-13T15:08:34;17.90;99.90
24252;DHT22;12380;51.118;4.176;2023-03-13T15:11:01;17.70;99.90
24252;DHT22;12380;51.118;4.176;2023-03-13T15:13:34;17.60;99.90
24252;DHT22;12380;51.118;4.176;2023-03-13T15:16:01;17.80;99.90
24252;DHT22;12380;51.118;4.176;2023-03-13T15:18:30;18.10;99.90
24252;DHT22;12380;51.118;4.176;2023-03-13T15:20:58;18.00;99.90
24252;DHT22;12380;51.118;4.176;2023-03-13T15:23:48;17.90;99.90
24252;DHT22;12380;51.118;4.176;2023-03-13T15:26:17;17.70;99.90
24252;DHT22;12380;51.118;4.176;2023-03-13T15:28:43;17.50;99.90
24252;DHT22;12380;51.118;4.176;2023-03-13T15:31:11;17.30;99.90
24252;DHT22;12380;51.118;4.176;2023-03-13T15:33:42;17.40;99.90
24252;DHT22;12380;51.118;4.176;2023-03-13T15:36:09;17.40;99.90
24252;DHT22;12380;51.118;4.176;2023-03-13T15:38:36;17.70;99.90
24252;DHT22;12380;51.118;4.176;2023-03-13T15:41:07;17.80;99.90
24252;DHT22;12380;51.118;4.176;2023-03-13T15:43:33;18.00;99.90
24252;DHT22;12380;51.118;4.176;2023-03-13T15:46:00;18.20;99.90
24252;DHT22;12380;51.118;4.176;2023-03-13T15:48:27;18.10;99.90
24252;DHT22;12380;51.118;4.176;2023-03-13T15:51:01;18.00;99.90
24252;DHT22;12380;51.118;4.176;2023-03-13T15:53:32;17.80;99.90
24252;DHT22;12380;51.118;4.176;2023-03-13T15:56:01;17.70;99.90
24252;DHT22;12380;51.118;4.176;2023-03-13T15:58:29;17.70;99.90
24252;DHT22;12380;51.118;4.176;2023-03-13T16:00:56;17.70;99.90
24252;DHT22;12380;51.118;4.176;2023-03-13T16:03:25;17.30;99.90
24252;DHT22;12380;51.118;4.176;2023-03-13T16:05:54;17.00;99.90
24252;DHT22;12380;51.118;4.176;2023-03-13T16:08:22;16.80;99.90
24252;DHT22;12380;51.118;4.176;2023-03-13T16:10:49;16.80;99.90
24252;DHT22;12380;51.118;4.176;2023-03-13T16:13:15;16.80;99.90
24252;DHT22;12380;51.118;4.176;2023-03-13T16:15:42;16.70;99.90
24252;DHT22;12380;51.118;4.176;2023-03-13T16:18:19;16.70;99.90
24252;DHT22;12380;51.118;4.176;2023-03-13T16:20:48;16.70;99.90
24252;DHT22;12380;51.118;4.176;2023-03-13T16:23:16;16.70;99.90
24252;DHT22;12380;51.118;4.176;2023-03-13T16:25:47;16.60;99.90
24252;DHT22;12380;51.118;4.176;2023-03-13T16:28:14;16.60;99.90
24252;DHT22;12380;51.118;4.176;2023-03-13T16:30:41;16.50;99.90
24252;DHT22;12380;51.118;4.176;2023-03-13T16:33:10;16.50;99.90
24252;DHT22;12380;51.118;4.176;2023-03-13T16:35:36;16.40;99.90
24252;DHT22;12380;51.118;4.176;2023-03-13T16:38:03;16.40;99.90
24252;DHT22;12380;51.118;4.176;2023-03-13T16:40:32;16.40;99.90
24252;DHT22;12380;51.118;4.176;2023-03-13T16:43:00;16.30;99.90
24252;DHT22;12380;51.118;4.176;2023-03-13T16:45:26;16.30;99.90
24252;DHT22;12380;51.118;4.176;2023-03-13T16:47:52;16.30;99.90
24252;DHT22;12380;51.118;4.176;2023-03-13T16:50:22;16.30;99.90
24252;DHT22;12380;51.118;4.176;2023-03-13T16:52:50;16.30;99.90
24252;DHT22;12380;51.118;4.176;2023-03-13T16:55:17;16.30;99.90
24252;DHT22;12380;51.118;4.176;2023-03-13T16:57:42;16.20;99.90
24252;DHT22;12380;51.118;4.176;2023-03-13T17:00:18;16.20;99.90
24252;DHT22;12380;51.118;4.176;2023-03-13T17:02:47;16.20;99.90
24252;DHT22;12380;51.118;4.176;2023-03-13T17:05:14;16.20;99.90
24252;DHT22;12380;51.118;4.176;2023-03-13T17:07:44;16.10;99.90
24252;DHT22;12380;51.118;4.176;2023-03-13T17:12:44;16.00;99.90
24252;DHT22;12380;51.118;4.176;2023-03-13T17:15:10;15.90;99.90
24252;DHT22;12380;51.118;4.176;2023-03-13T17:17:36;15.90;99.90
24252;DHT22;12380;51.118;4.176;2023-03-13T17:20:02;15.80;99.90
24252;DHT22;12380;51.118;4.176;2023-03-13T17:22:33;15.70;99.90
24252;DHT22;12380;51.118;4.176;2023-03-13T17:24:59;15.70;99.90
24252;DHT22;12380;51.118;4.176;2023-03-13T17:27:25;15.60;99.90
24252;DHT22;12380;51.118;4.176;2023-03-13T17:29:50;15.60;99.90
24252;DHT22;12380;51.118;4.176;2023-03-13T17:32:16;15.50;99.90
24252;DHT22;12380;51.118;4.176;2023-03-13T17:34:42;15.50;99.90
24252;DHT22;12380;51.118;4.176;2023-03-13T17:37:19;15.60;99.90
24252;DHT22;12380;51.118;4.176;2023-03-13T17:39:45;15.60;99.90
24252;DHT22;12380;51.118;4.176;2023-03-13T17:42:14;15.40;99.90
24252;DHT22;12380;51.118;4.176;2023-03-13T17:44:42;15.40;99.90
24252;DHT22;12380;51.118;4.176;2023-03-13T17:47:20;15.30;99.90
24252;DHT22;12380;51.118;4.176;2023-03-13T17:49:48;15.10;99.90
24252;DHT22;12380;51.118;4.176;2023-03-13T17:52:15;15.10;99.90
24252;DHT22;12380;51.118;4.176;2023-03-13T17:54:42;15.10;99.90
24252;DHT22;12380;51.118;4.176;2023-03-13T17:57:23;15.10;99.90
24252;DHT22;12380;51.118;4.176;2023-03-13T17:59:52;15.10;99.90
24252;DHT22;12380;51.118;4.176;2023-03-13T18:02:17;15.00;99.90